Impacts METAR Board
IDs:

KGTU - Georgetown Muni, TX, US

Updated at: 0300 UTC 06 Dec 2019
Potential Impact None Slight Moderate High
Time 05/15Z 05/16Z 05/17Z 05/18Z 05/19Z 05/20Z 05/21Z 05/22Z 05/23Z 06/00Z 06/01Z 06/02Z 06/03Z
Temp57 62 65 69 71 74 73 73 71 69 67 65 65
Dewpt51 55 58 59 60 58 58 58 57 57 59 59 59
Altim30.06 30.07 30.06 30.02 29.98 29.95 29.93 29.93 29.94 29.94 29.96 29.98 29.98
VIS10 10 10 10 10 10 10 10 10 10 10 10 10
CIG6 16 16 18 -- -- -- -- -- -- -- -- --
CoverBKNOVCOVCOVCFEWCLRCLRCLRCLRCLRCLRCLRCLR
FltCatIFRMVFRMVFRMVFRVFRVFRVFRVFRVFRVFRVFRVFRVFR
WX--------------------------
WDir140180190180170180180180190180200200210
WSpd3 9 14 13 11 12 16 16 15 15 9 7 8
WGst-- -- 17 18 16 18 -- -- 20 -- -- -- --
Raw hourly METARs
KGTU 051456Z 14003KT 10SM BKN006 14/11 A3006 RMK AO2 SLP179 T01390106 51011
KGTU 051556Z 18009KT 10SM OVC016 17/13 A3007 RMK AO2 SLP182 T01670128
KGTU 051656Z 19014G17KT 10SM OVC016 18/14 A3006 RMK AO2 SLP176 T01830144
KGTU 051756Z 18013G18KT 10SM OVC018 21/15 A3002 RMK AO2 SLP163 T02060150 10206 20100 58013
KGTU 051856Z 17011G16KT 10SM FEW022 22/16 A2998 RMK AO2 SLP152 T02170156
KGTU 051956Z 18012G18KT 10SM CLR 23/14 A2995 RMK AO2 SLP140 T02330144
KGTU 052056Z 18016KT 10SM CLR 23/14 A2993 RMK AO2 SLP133 T02280144 56031
KGTU 052156Z 18016KT 10SM CLR 23/14 A2993 RMK AO2 SLP132 T02280144
KGTU 052256Z 19015G20KT 10SM CLR 22/14 A2994 RMK AO2 SLP138 T02170139
KGTU 052356Z 18015KT 10SM CLR 21/14 A2994 RMK AO2 SLP138 T02060139 10233 20200 52005
KGTU 060056Z 20009KT 10SM CLR 19/15 A2996 RMK AO2 SLP144 T01940150
KGTU 060156Z 20007KT 10SM CLR 18/15 A2998 RMK AO2 SLP149 T01830150
KGTU 060256Z 21008KT 10SM CLR 18/15 A2998 RMK AO2 SLP153 T01830150 51014